Time;durP1;ratioP1;P1;durP2;ratioP2;P2;SDS_P1;SDS_P2;PMS_P1;PMS_P2;Temp;Humidity;BMP_temperature;BMP_pressure;BME280_temperature;BME280_humidity;BME280_pressure;Samples;Min_cycle;Max_cycle;Signal;HPM_P1;HPM_P2
2022/09/15 00:01:29;;;;;;;14.15;11.35;;;27.50;99.90;;;;;;4138998;28;20396;-74
2022/09/15 00:03:36;;;;;;;16.45;12.35;;;27.50;99.90;;;;;;4144004;28;20050;-73
2022/09/15 00:05:41;;;;;;;13.05;11.68;;;27.50;99.90;;;;;;4147554;28;20057;-74
2022/09/15 00:07:46;;;;;;;16.17;12.38;;;27.60;99.90;;;;;;4147743;28;20050;-74
2022/09/15 00:09:51;;;;;;;14.65;12.07;;;27.60;99.90;;;;;;4148567;28;20054;-73
2022/09/15 00:11:56;;;;;;;13.93;11.75;;;27.60;99.90;;;;;;4163029;28;20049;-74
2022/09/15 00:14:02;;;;;;;16.85;12.10;;;27.60;99.90;;;;;;4146540;28;20579;-73
2022/09/15 00:16:17;;;;;;;16.83;14.38;;;27.70;99.90;;;;;;4146991;28;20042;-73
2022/09/15 00:18:23;;;;;;;14.93;13.45;;;27.60;99.90;;;;;;4148074;28;20077;-72
2022/09/15 00:20:27;;;;;;;16.00;13.68;;;27.70;99.90;;;;;;4147917;28;20164;-73
2022/09/15 00:22:34;;;;;;;15.05;13.40;;;27.70;99.90;;;;;;4147139;28;20204;-72
2022/09/15 00:24:40;;;;;;;16.38;12.40;;;27.70;99.90;;;;;;4147945;28;20057;-72
2022/09/15 00:26:45;;;;;;;14.00;12.60;;;27.80;99.90;;;;;;4147896;28;20046;-72
2022/09/15 00:28:53;;;;;;;13.82;11.73;;;27.80;99.90;;;;;;4162920;28;20066;-73
2022/09/15 00:30:59;;;;;;;14.77;12.40;;;27.90;99.90;;;;;;4147389;28;20100;-72
2022/09/15 00:33:03;;;;;;;14.60;12.80;;;28.00;99.90;;;;;;4163065;28;20148;-73
2022/09/15 00:35:12;;;;;;;15.45;13.55;;;28.00;99.90;;;;;;4147720;28;20050;-73
2022/09/15 00:37:17;;;;;;;15.73;13.32;;;28.00;99.90;;;;;;4148110;28;20080;-73
2022/09/15 00:39:22;;;;;;;16.80;12.80;;;28.00;99.90;;;;;;4162946;28;20060;-73
2022/09/15 00:41:30;;;;;;;17.40;12.18;;;28.00;99.90;;;;;;4146934;28;20044;-73
2022/09/15 00:44:05;;;;;;;13.98;12.50;;;28.10;99.90;;;;;;4162024;28;20079;-74
2022/09/15 00:46:12;;;;;;;15.75;12.38;;;28.20;99.90;;;;;;4147558;28;20061;-72
2022/09/15 00:48:20;;;;;;;14.20;12.02;;;28.20;99.90;;;;;;4147759;28;20060;-72
2022/09/15 00:50:24;;;;;;;16.13;12.85;;;28.30;99.90;;;;;;4147078;28;20521;-73
2022/09/15 00:52:41;;;;;;;14.88;12.48;;;28.40;99.90;;;;;;4147255;28;20046;-73
2022/09/15 00:54:49;;;;;;;13.32;11.95;;;28.40;99.90;;;;;;4147133;28;20044;-73
2022/09/15 00:57:01;;;;;;;13.30;11.70;;;28.30;99.90;;;;;;4145590;28;20197;-73
2022/09/15 00:59:09;;;;;;;14.38;12.82;;;28.20;99.90;;;;;;4143948;28;20477;-73
2022/09/15 01:01:22;;;;;;;15.30;12.32;;;28.30;99.90;;;;;;4145534;28;20495;-73
2022/09/15 01:03:43;;;;;;;16.77;12.27;;;28.40;99.90;;;;;;4138755;28;20484;-73
2022/09/15 01:05:52;;;;;;;16.30;11.48;;;28.60;99.90;;;;;;4131142;28;20076;-73
2022/09/15 01:08:08;;;;;;;11.88;10.60;;;28.60;99.90;;;;;;4153915;28;20053;-72
2022/09/15 01:10:22;;;;;;;13.30;10.05;;;28.60;99.90;;;;;;4131900;28;20064;-73
2022/09/15 01:12:27;;;;;;;12.43;10.90;;;28.70;99.90;;;;;;4131023;28;20185;-73
2022/09/15 01:14:35;;;;;;;14.45;12.43;;;28.80;99.90;;;;;;4130839;28;20129;-72
2022/09/15 01:16:59;;;;;;;18.45;13.95;;;28.80;99.90;;;;;;4129312;28;20133;-73
2022/09/15 01:19:51;;;;;;;14.57;11.45;;;28.80;99.90;;;;;;4164867;28;20041;-74
2022/09/15 01:22:18;;;;;;;13.63;11.15;;;28.90;99.90;;;;;;4145933;28;20042;-73
2022/09/15 01:24:58;;;;;;;16.73;10.25;;;29.00;99.90;;;;;;4146575;28;20081;-73
2022/09/15 01:27:37;;;;;;;12.68;11.38;;;29.10;99.90;;;;;;4146419;28;20068;-73
2022/09/15 01:30:12;;;;;;;16.45;12.02;;;29.00;99.90;;;;;;4130292;28;20142;-73
2022/09/15 01:34:48;;;;;;;37.55;13.18;;;28.80;99.90;;;;;;4145516;28;20140;-72
2022/09/15 01:36:57;;;;;;;17.48;11.70;;;28.70;99.90;;;;;;4130037;28;20050;-71
2022/09/15 01:39:19;;;;;;;20.92;11.80;;;28.80;99.90;;;;;;4130540;28;20052;-71
2022/09/15 01:41:51;;;;;;;74.38;13.13;;;28.90;99.90;;;;;;4113327;28;20086;-71
2022/09/15 01:44:08;;;;;;;20.67;11.68;;;29.10;99.90;;;;;;4144308;28;20050;-71
2022/09/15 01:46:19;;;;;;;22.30;11.20;;;29.30;99.90;;;;;;4130236;28;20054;-71
2022/09/15 01:48:24;;;;;;;32.67;11.30;;;29.40;99.90;;;;;;4129616;28;20064;-72
2022/09/15 01:50:36;;;;;;;14.63;11.13;;;29.40;99.90;;;;;;4130442;28;20065;-71
2022/09/15 01:52:44;;;;;;;11.30;10.10;;;29.40;99.90;;;;;;4136572;28;20050;-71
2022/09/15 01:54:52;;;;;;;31.25;10.88;;;29.40;99.90;;;;;;4146322;28;20757;-72
2022/09/15 01:56:57;;;;;;;32.30;11.18;;;29.50;99.90;;;;;;4145886;28;20050;-72
2022/09/15 01:59:06;;;;;;;25.52;10.90;;;29.60;99.90;;;;;;4146191;28;20365;-71
2022/09/15 02:01:30;;;;;;;12.05;10.55;;;29.60;99.90;;;;;;4146226;28;20400;-71
2022/09/15 02:03:50;;;;;;;12.00;10.02;;;29.60;99.90;;;;;;4147078;28;20529;-74
2022/09/15 02:06:02;;;;;;;12.05;9.55;;;29.60;99.90;;;;;;4146955;28;20104;-74
2022/09/15 02:08:32;;;;;;;12.23;9.88;;;29.60;99.90;;;;;;4161733;28;20053;-74
2022/09/15 02:10:44;;;;;;;11.85;10.55;;;29.70;99.90;;;;;;4147330;28;20545;-74
2022/09/15 02:13:16;;;;;;;10.45;9.40;;;29.80;99.90;;;;;;4146641;28;20048;-74
2022/09/15 02:15:28;;;;;;;11.32;10.13;;;29.60;99.90;;;;;;4146817;28;20054;-71
2022/09/15 02:17:37;;;;;;;10.90;9.88;;;29.70;99.90;;;;;;4147363;28;20080;-73
2022/09/15 02:19:48;;;;;;;15.48;9.27;;;29.60;99.90;;;;;;4177790;28;20557;-72
2022/09/15 02:22:14;;;;;;;11.05;9.02;;;29.60;99.90;;;;;;4146373;28;20378;-73
2022/09/15 02:24:23;;;;;;;10.38;9.10;;;29.50;99.90;;;;;;4147003;28;20053;-72
2022/09/15 02:26:33;;;;;;;12.20;9.40;;;29.50;99.90;;;;;;4146746;28;20054;-72
2022/09/15 02:28:38;;;;;;;10.30;9.23;;;29.60;99.90;;;;;;4176767;28;20467;-72
2022/09/15 02:30:43;;;;;;;16.98;9.90;;;29.70;99.90;;;;;;4146847;28;20046;-72
2022/09/15 02:32:59;;;;;;;10.32;9.32;;;29.70;99.90;;;;;;4146898;28;20501;-74
2022/09/15 02:35:05;;;;;;;10.23;9.20;;;29.70;99.90;;;;;;4146739;28;20104;-74
2022/09/15 02:37:10;;;;;;;16.13;9.63;;;29.80;99.90;;;;;;4146759;28;20046;-74
2022/09/15 02:39:19;;;;;;;10.15;9.10;;;29.60;99.90;;;;;;4145615;28;20056;-74
2022/09/15 02:41:23;;;;;;;10.48;9.32;;;29.50;99.90;;;;;;4146483;28;20077;-74
2022/09/15 02:43:28;;;;;;;10.88;9.50;;;29.60;99.90;;;;;;4146433;28;20048;-74
2022/09/15 02:45:34;;;;;;;10.60;9.50;;;29.70;99.90;;;;;;4177265;28;20594;-74
2022/09/15 02:47:41;;;;;;;12.52;9.18;;;29.90;99.90;;;;;;4146596;28;20073;-74
2022/09/15 02:49:45;;;;;;;10.60;9.50;;;29.90;99.90;;;;;;4146607;28;20050;-73
2022/09/15 02:51:51;;;;;;;12.23;9.50;;;29.90;99.90;;;;;;4145926;28;20053;-73
2022/09/15 02:53:56;;;;;;;10.43;9.43;;;30.00;99.90;;;;;;4177710;28;20076;-73
2022/09/15 02:56:01;;;;;;;10.98;9.60;;;30.10;99.90;;;;;;4159900;28;20065;-74
2022/09/15 02:58:10;;;;;;;10.82;8.98;;;30.10;99.90;;;;;;4145205;28;20052;-74
2022/09/15 03:00:18;;;;;;;18.25;9.45;;;30.20;99.90;;;;;;4142211;28;20488;-73
2022/09/15 03:02:24;;;;;;;10.05;8.98;;;30.30;99.90;;;;;;4161218;28;20160;-74
2022/09/15 03:04:32;;;;;;;14.98;9.00;;;30.30;99.90;;;;;;4146423;28;20393;-74
2022/09/15 03:06:37;;;;;;;10.48;9.23;;;30.40;99.90;;;;;;4160815;28;20439;-74
2022/09/15 03:08:53;;;;;;;12.80;9.25;;;30.60;99.90;;;;;;4146198;28;20042;-74
2022/09/15 03:11:14;;;;;;;9.93;8.77;;;30.40;99.90;;;;;;4173051;28;20143;-74
2022/09/15 03:13:19;;;;;;;10.27;9.18;;;30.20;99.90;;;;;;4146379;28;20073;-74
2022/09/15 03:15:24;;;;;;;10.80;8.85;;;30.20;99.90;;;;;;4160980;28;20096;-75
2022/09/15 03:17:28;;;;;;;9.90;8.95;;;30.10;99.90;;;;;;4146292;28;20097;-74
2022/09/15 03:19:33;;;;;;;11.95;9.77;;;30.20;99.90;;;;;;4144220;28;20046;-74
2022/09/15 03:21:37;;;;;;;9.73;8.73;;;30.20;99.90;;;;;;4176733;28;20476;-73
2022/09/15 03:23:44;;;;;;;10.35;9.10;;;30.10;99.90;;;;;;4145689;28;20069;-74
2022/09/15 03:25:48;;;;;;;11.55;9.10;;;30.20;99.90;;;;;;4145712;28;20136;-74
2022/09/15 03:27:53;;;;;;;9.95;8.90;;;30.30;99.90;;;;;;4145925;28;20050;-74
2022/09/15 03:29:57;;;;;;;11.00;8.40;;;30.30;99.90;;;;;;4145135;28;20136;-74
2022/09/15 03:32:02;;;;;;;10.70;9.35;;;30.30;99.90;;;;;;4144336;28;20543;-74
2022/09/15 03:34:06;;;;;;;11.15;8.70;;;30.30;99.90;;;;;;4143449;28;20475;-74
2022/09/15 03:36:15;;;;;;;10.18;9.15;;;30.30;99.90;;;;;;4159718;28;20065;-75
2022/09/15 03:38:19;;;;;;;10.23;8.65;;;30.40;99.90;;;;;;4159022;28;20049;-75
2022/09/15 03:40:24;;;;;;;9.90;8.43;;;30.70;99.90;;;;;;4143906;28;20717;-74
2022/09/15 03:42:32;;;;;;;9.52;8.50;;;30.80;99.90;;;;;;4109938;28;20046;-74
2022/09/15 03:44:37;;;;;;;11.93;8.30;;;30.70;99.90;;;;;;4144285;28;20074;-75
2022/09/15 03:46:41;;;;;;;10.32;8.48;;;30.90;99.90;;;;;;4159210;28;20064;-75
2022/09/15 03:48:51;;;;;;;12.10;8.52;;;30.80;99.90;;;;;;4144526;28;20052;-74
2022/09/15 03:50:55;;;;;;;9.55;8.48;;;31.00;99.90;;;;;;4144049;28;20049;-74
2022/09/15 03:53:00;;;;;;;9.55;8.63;;;31.10;99.90;;;;;;4158312;28;20053;-74
2022/09/15 03:55:05;;;;;;;10.95;8.77;;;31.20;99.90;;;;;;4159299;28;20052;-75
2022/09/15 03:57:10;;;;;;;11.25;8.15;;;31.30;99.90;;;;;;4143835;28;20046;-75
2022/09/15 03:59:14;;;;;;;9.27;8.30;;;31.30;99.90;;;;;;4144481;28;20141;-74
2022/09/15 04:01:23;;;;;;;8.77;7.88;;;31.40;99.90;;;;;;4144420;28;20053;-74
2022/09/15 04:03:31;;;;;;;9.90;8.95;;;31.20;99.90;;;;;;4158956;28;20048;-75
2022/09/15 04:05:41;;;;;;;10.63;9.52;;;31.30;99.90;;;;;;4144525;28;20081;-75
2022/09/15 04:07:49;;;;;;;10.85;8.77;;;31.30;99.90;;;;;;4144861;28;20899;-76
2022/09/15 04:09:54;;;;;;;9.38;8.48;;;31.20;99.90;;;;;;4142279;28;20137;-75
2022/09/15 04:12:03;;;;;;;11.60;8.48;;;31.20;99.90;;;;;;4128529;28;20050;-76
2022/09/15 04:14:10;;;;;;;9.07;8.27;;;31.20;99.90;;;;;;4143286;28;20078;-76
2022/09/15 04:16:19;;;;;;;10.75;8.43;;;31.20;99.90;;;;;;4128604;28;20490;-76
2022/09/15 04:18:24;;;;;;;9.18;8.10;;;31.20;99.90;;;;;;4127970;28;20702;-73
2022/09/15 04:20:32;;;;;;;9.77;8.15;;;31.20;99.90;;;;;;4128096;28;20066;-73
2022/09/15 04:22:37;;;;;;;15.77;8.00;;;31.30;99.90;;;;;;4132601;28;20038;-75
2022/09/15 04:24:47;;;;;;;8.88;7.45;;;31.30;99.90;;;;;;4143028;28;20046;-73
2022/09/15 04:26:59;;;;;;;12.77;8.35;;;31.30;99.90;;;;;;4143244;28;20144;-72
2022/09/15 04:29:09;;;;;;;11.23;7.88;;;31.40;99.90;;;;;;4142546;28;20137;-73
2022/09/15 04:31:15;;;;;;;8.82;7.93;;;31.50;99.90;;;;;;4190385;28;20072;-72
2022/09/15 04:33:25;;;;;;;9.35;7.18;;;31.70;99.90;;;;;;4142730;28;20049;-72
2022/09/15 04:35:29;;;;;;;7.90;7.10;;;31.80;99.90;;;;;;4174006;28;20045;-72
2022/09/15 04:37:34;;;;;;;7.65;6.95;;;31.90;99.90;;;;;;4143115;28;20054;-72
2022/09/15 04:39:43;;;;;;;8.32;7.20;;;31.90;99.90;;;;;;4142716;28;20053;-73
2022/09/15 04:41:50;;;;;;;10.13;7.53;;;32.00;99.90;;;;;;4142728;28;20504;-72
2022/09/15 04:43:54;;;;;;;8.48;7.13;;;32.10;99.90;;;;;;4173861;28;20085;-73
2022/09/15 04:46:01;;;;;;;7.50;6.75;;;32.10;99.90;;;;;;4142202;28;20080;-72
2022/09/15 04:48:08;;;;;;;12.50;7.50;;;32.10;99.90;;;;;;4143952;28;20049;-73
2022/09/15 04:50:14;;;;;;;11.25;7.63;;;32.00;99.90;;;;;;4144185;28;20046;-73
2022/09/15 04:52:21;;;;;;;9.60;8.30;;;31.90;99.90;;;;;;4146924;28;20148;-72
2022/09/15 04:54:26;;;;;;;8.60;7.72;;;31.90;99.90;;;;;;4146829;28;20112;-73
2022/09/15 04:56:30;;;;;;;11.88;8.25;;;31.80;99.90;;;;;;4146883;28;20077;-75
2022/09/15 04:58:40;;;;;;;10.48;8.00;;;31.80;99.90;;;;;;4148495;28;20104;-75
2022/09/15 05:00:45;;;;;;;10.23;7.82;;;32.00;99.90;;;;;;4179683;28;20460;-73
2022/09/15 05:02:49;;;;;;;8.65;7.85;;;32.00;99.90;;;;;;4148520;28;20038;-75
2022/09/15 05:04:58;;;;;;;9.02;7.63;;;32.10;99.90;;;;;;4148173;28;20060;-74
2022/09/15 05:07:03;;;;;;;10.63;7.55;;;32.20;99.90;;;;;;4147876;28;20046;-74
2022/09/15 05:09:11;;;;;;;15.35;8.35;;;32.20;99.90;;;;;;4147134;28;20057;-74
2022/09/15 05:11:23;;;;;;;12.38;8.07;;;32.10;99.90;;;;;;4146590;28;20564;-74
2022/09/15 05:13:30;;;;;;;8.73;6.90;;;32.10;99.90;;;;;;4146633;28;20054;-73
2022/09/15 05:15:36;;;;;;;8.25;6.85;;;32.10;99.90;;;;;;4146423;28;20077;-74
2022/09/15 05:17:45;;;;;;;8.20;7.45;;;32.10;99.90;;;;;;4160897;28;20045;-73
2022/09/15 05:19:49;;;;;;;9.38;7.80;;;32.00;99.90;;;;;;4146718;28;20056;-73
2022/09/15 05:21:54;;;;;;;11.18;8.65;;;32.00;99.90;;;;;;4146462;28;20042;-73
2022/09/15 05:24:03;;;;;;;9.30;8.40;;;32.00;99.90;;;;;;4178234;28;20063;-72
2022/09/15 05:26:11;;;;;;;11.45;8.57;;;32.00;99.90;;;;;;4146216;28;20136;-73
2022/09/15 05:28:16;;;;;;;8.95;8.05;;;32.00;99.90;;;;;;4146364;28;20046;-74
2022/09/15 05:30:25;;;;;;;14.25;8.13;;;32.10;99.90;;;;;;4146379;28;20046;-73
2022/09/15 05:32:47;;;;;;;13.75;8.55;;;32.10;99.90;;;;;;4172835;28;20456;-72
2022/09/15 05:34:52;;;;;;;9.32;8.43;;;32.40;99.90;;;;;;4146506;28;20096;-73
2022/09/15 05:37:00;;;;;;;9.00;8.10;;;32.50;99.90;;;;;;4178286;28;20056;-73
2022/09/15 05:39:05;;;;;;;10.27;8.70;;;32.70;99.90;;;;;;4146379;28;20161;-74
2022/09/15 05:41:17;;;;;;;10.18;8.23;;;32.80;99.90;;;;;;4145987;28;20045;-74
2022/09/15 05:43:26;;;;;;;9.05;7.50;;;32.90;99.90;;;;;;4146441;28;20065;-74
2022/09/15 05:45:31;;;;;;;8.77;7.90;;;32.90;99.90;;;;;;4177244;28;20091;-73
2022/09/15 05:47:36;;;;;;;9.70;7.50;;;33.00;99.90;;;;;;4146248;28;20056;-73
2022/09/15 05:49:43;;;;;;;7.95;7.07;;;33.10;99.90;;;;;;4146225;28;20060;-73
2022/09/15 05:51:50;;;;;;;8.18;7.38;;;33.10;99.90;;;;;;4145867;28;20052;-73
2022/09/15 05:53:57;;;;;;;9.60;6.88;;;33.20;99.90;;;;;;4145430;28;20401;-72
2022/09/15 05:56:06;;;;;;;8.25;6.78;;;33.10;99.90;;;;;;4145944;28;20711;-72
2022/09/15 05:58:11;;;;;;;8.25;6.63;;;33.10;99.90;;;;;;4146223;28;20053;-73
2022/09/15 06:00:17;;;;;;;8.18;6.35;;;32.90;99.90;;;;;;4176681;28;20041;-74
2022/09/15 06:02:26;;;;;;;7.97;6.13;;;32.70;99.90;;;;;;4145464;28;20161;-73
2022/09/15 06:04:32;;;;;;;8.60;6.28;;;32.70;99.90;;;;;;4145978;28;20042;-73
2022/09/15 06:06:37;;;;;;;7.28;6.28;;;32.70;99.90;;;;;;4146104;28;20100;-73
2022/09/15 06:08:50;;;;;;;7.70;5.80;;;32.60;99.90;;;;;;4144959;28;20093;-74
2022/09/15 06:11:02;;;;;;;8.98;6.25;;;32.50;99.90;;;;;;4145738;28;20045;-74
2022/09/15 06:13:07;;;;;;;7.93;6.45;;;32.40;99.90;;;;;;4161057;28;20642;-73
2022/09/15 06:15:15;;;;;;;8.23;6.50;;;32.40;99.90;;;;;;4145288;28;20100;-73
2022/09/15 06:17:21;;;;;;;6.38;5.78;;;32.20;99.90;;;;;;4145877;28;20053;-74
2022/09/15 06:19:28;;;;;;;6.55;5.40;;;32.10;99.90;;;;;;4145969;28;20046;-74
2022/09/15 06:21:56;;;;;;;5.53;4.78;;;32.00;99.50;;;;;;4172099;28;20060;-74
2022/09/15 06:24:02;;;;;;;7.10;5.00;;;31.90;99.30;;;;;;4145610;28;20061;-75
2022/09/15 06:26:15;;;;;;;9.82;5.10;;;31.70;99.10;;;;;;4144834;28;20077;-75
2022/09/15 06:28:25;;;;;;;7.88;5.05;;;31.50;99.20;;;;;;4145536;28;20045;-72
2022/09/15 06:30:30;;;;;;;4.57;4.18;;;31.40;99.00;;;;;;4145475;28;20152;-76
2022/09/15 06:32:35;;;;;;;5.45;4.53;;;31.30;99.10;;;;;;4176523;28;20900;-77
2022/09/15 06:34:42;;;;;;;6.28;4.28;;;31.10;99.50;;;;;;4176879;28;20071;-76
2022/09/15 06:36:46;;;;;;;13.40;5.82;;;31.00;99.50;;;;;;4145554;28;20189;-77
2022/09/15 06:38:51;;;;;;;12.30;5.70;;;30.80;99.90;;;;;;4176906;28;20462;-76
2022/09/15 06:40:59;;;;;;;13.27;5.70;;;30.60;99.90;;;;;;4145313;28;20088;-76
2022/09/15 06:43:04;;;;;;;15.43;7.57;;;30.30;99.90;;;;;;4145581;28;20038;-73
2022/09/15 06:45:11;;;;;;;16.48;7.82;;;30.30;99.90;;;;;;4176236;28;20107;-73
2022/09/15 06:47:19;;;;;;;16.00;8.43;;;30.10;99.90;;;;;;4176136;28;20102;-75
2022/09/15 06:49:24;;;;;;;13.30;8.18;;;29.40;99.90;;;;;;4145736;28;20061;-72
2022/09/15 06:51:34;;;;;;;16.15;7.32;;;28.90;99.90;;;;;;4145305;28;20065;-73
2022/09/15 06:53:45;;;;;;;11.82;6.70;;;28.90;99.90;;;;;;4144112;28;20049;-73
2022/09/15 06:55:49;;;;;;;13.43;7.85;;;29.20;99.90;;;;;;4143990;28;20576;-72
2022/09/15 06:57:54;;;;;;;11.05;7.70;;;29.30;99.90;;;;;;4144117;28;20053;-73
2022/09/15 07:00:04;;;;;;;11.38;8.23;;;29.20;99.90;;;;;;4144526;28;20407;-72
2022/09/15 07:02:10;;;;;;;12.52;8.65;;;29.30;99.90;;;;;;4143814;28;20048;-72
2022/09/15 07:04:14;;;;;;;11.32;8.20;;;29.10;99.90;;;;;;4143617;28;20045;-71
2022/09/15 07:06:28;;;;;;;8.23;6.60;;;28.50;99.90;;;;;;4144235;28;20089;-72
2022/09/15 07:08:32;;;;;;;8.05;5.57;;;28.40;99.90;;;;;;4141850;28;20101;-73
2022/09/15 07:10:37;;;;;;;7.78;5.07;;;28.60;99.90;;;;;;4142358;28;20054;-72
2022/09/15 07:12:45;;;;;;;8.00;5.70;;;28.70;99.90;;;;;;4141927;28;20042;-73
2022/09/15 07:14:50;;;;;;;9.68;5.70;;;28.70;99.90;;;;;;4143978;28;20050;-72
2022/09/15 07:16:54;;;;;;;8.32;5.60;;;28.90;99.90;;;;;;4141971;28;20042;-73
2022/09/15 07:19:04;;;;;;;9.07;7.90;;;29.10;99.90;;;;;;4145129;28;20050;-72
2022/09/15 07:21:11;;;;;;;9.43;8.07;;;29.10;99.90;;;;;;4144532;28;20455;-72
2022/09/15 07:23:17;;;;;;;13.60;7.45;;;29.10;99.90;;;;;;4144787;28;20112;-72
2022/09/15 07:25:34;;;;;;;9.80;7.05;;;29.10;99.90;;;;;;4142720;28;20053;-72
2022/09/15 07:27:39;;;;;;;11.40;8.60;;;29.20;99.90;;;;;;4144606;28;20493;-73
2022/09/15 07:29:43;;;;;;;12.98;8.70;;;29.20;99.90;;;;;;4144994;28;20523;-73
2022/09/15 07:31:52;;;;;;;11.02;8.85;;;29.20;99.90;;;;;;4175301;28;20107;-73
2022/09/15 07:33:59;;;;;;;12.18;8.23;;;29.20;99.90;;;;;;4144720;28;20092;-73
2022/09/15 07:36:05;;;;;;;8.93;8.02;;;29.20;99.90;;;;;;4144292;28;20053;-73
2022/09/15 07:38:13;;;;;;;8.63;7.82;;;29.20;99.90;;;;;;4144803;28;20048;-73
2022/09/15 07:40:18;;;;;;;11.32;8.48;;;29.30;99.90;;;;;;4144650;28;20048;-73
2022/09/15 07:42:22;;;;;;;9.43;8.52;;;29.20;99.90;;;;;;4144309;28;20410;-73
2022/09/15 07:44:29;;;;;;;11.45;9.07;;;29.30;99.90;;;;;;4144381;28;20057;-73
2022/09/15 07:46:34;;;;;;;10.32;8.50;;;29.40;99.90;;;;;;4144519;28;20038;-74
2022/09/15 07:48:38;;;;;;;11.32;8.88;;;29.40;99.90;;;;;;4144655;28;20065;-73
2022/09/15 07:50:46;;;;;;;11.05;9.35;;;29.30;99.90;;;;;;4144540;28;20042;-72
2022/09/15 07:52:54;;;;;;;8.63;7.80;;;28.90;99.90;;;;;;4144520;28;20138;-74
2022/09/15 07:54:58;;;;;;;7.50;6.78;;;28.50;99.90;;;;;;4144422;28;20038;-72
2022/09/15 07:57:05;;;;;;;7.30;6.60;;;28.00;99.90;;;;;;4144397;28;20452;-72
2022/09/15 07:59:10;;;;;;;7.28;6.57;;;28.10;99.90;;;;;;4144550;28;20125;-71
2022/09/15 08:01:16;;;;;;;7.93;6.07;;;28.40;99.90;;;;;;4159115;28;20050;-73
2022/09/15 08:03:21;;;;;;;7.25;5.75;;;28.30;99.90;;;;;;4144129;28;20124;-73
2022/09/15 08:05:27;;;;;;;6.57;5.45;;;28.50;99.90;;;;;;4175788;28;20136;-72
2022/09/15 08:07:31;;;;;;;6.95;5.55;;;28.60;99.90;;;;;;4158475;28;20120;-72
2022/09/15 08:09:40;;;;;;;5.53;4.85;;;28.60;99.90;;;;;;4176148;28;20060;-71
2022/09/15 08:11:45;;;;;;;7.28;5.07;;;28.60;99.90;;;;;;4143062;28;20867;-72
2022/09/15 08:13:50;;;;;;;5.97;5.10;;;28.50;99.90;;;;;;4144015;28;20053;-71
2022/09/15 08:16:11;;;;;;;7.32;4.80;;;28.20;99.90;;;;;;4144188;28;20054;-72
2022/09/15 08:18:15;;;;;;;5.85;5.10;;;28.20;99.90;;;;;;4144515;28;20563;-75
2022/09/15 08:20:20;;;;;;;7.40;5.90;;;28.40;99.90;;;;;;4144184;28;20820;-74
2022/09/15 08:22:30;;;;;;;7.82;5.28;;;28.50;99.90;;;;;;4143046;28;20441;-72
2022/09/15 08:24:36;;;;;;;6.88;6.07;;;28.70;99.90;;;;;;4144320;28;20042;-74
2022/09/15 08:26:41;;;;;;;8.25;6.07;;;28.60;99.90;;;;;;4146712;28;20496;-74
2022/09/15 08:28:52;;;;;;;10.10;6.55;;;28.70;99.90;;;;;;4178568;28;20071;-76
2022/09/15 08:31:01;;;;;;;9.20;7.32;;;28.90;99.90;;;;;;4147373;28;20084;-75
2022/09/15 08:33:06;;;;;;;10.10;7.65;;;29.00;99.90;;;;;;4146982;28;20129;-76
2022/09/15 08:35:10;;;;;;;9.70;7.72;;;29.10;99.90;;;;;;4147147;28;20041;-76
2022/09/15 08:37:17;;;;;;;9.80;7.78;;;29.00;99.90;;;;;;4147506;28;20074;-77
2022/09/15 08:39:21;;;;;;;10.73;8.07;;;29.00;99.90;;;;;;4147200;28;20045;-77
2022/09/15 08:41:42;;;;;;;10.13;8.43;;;29.10;99.90;;;;;;4147003;28;20042;-77
2022/09/15 08:44:19;;;;;;;14.02;8.60;;;29.10;99.90;;;;;;4147714;28;20054;-78
2022/09/15 08:46:28;;;;;;;9.98;8.23;;;29.00;99.90;;;;;;4147006;28;20141;-73
2022/09/15 08:48:38;;;;;;;13.60;8.45;;;28.90;99.90;;;;;;4147009;28;20050;-71
2022/09/15 08:50:48;;;;;;;9.00;8.07;;;29.00;99.90;;;;;;4147014;28;20092;-72
2022/09/15 08:52:59;;;;;;;10.27;8.35;;;29.00;99.90;;;;;;4147046;28;20041;-72
2022/09/15 08:55:38;;;;;;;9.40;8.38;;;28.80;99.90;;;;;;4146819;28;20045;-72
2022/09/15 08:57:45;;;;;;;9.82;8.70;;;28.90;99.90;;;;;;4146877;28;20138;-72
2022/09/15 08:59:49;;;;;;;10.10;8.40;;;29.00;99.90;;;;;;4161744;28;20092;-71
2022/09/15 09:02:24;;;;;;;8.95;8.05;;;29.20;99.90;;;;;;4146624;28;20077;-71
2022/09/15 09:05:11;;;;;;;9.07;8.25;;;29.30;99.90;;;;;;4147009;28;20054;-71
2022/09/15 09:07:42;;;;;;;9.07;8.18;;;29.40;99.90;;;;;;4147092;28;20050;-71
2022/09/15 09:10:10;;;;;;;8.65;7.68;;;29.40;99.90;;;;;;4146689;28;20332;-72
2022/09/15 09:12:46;;;;;;;8.98;8.07;;;29.50;99.90;;;;;;4144516;28;20069;-71
2022/09/15 09:15:11;;;;;;;8.85;7.93;;;29.50;99.90;;;;;;4139605;28;20137;-72
2022/09/15 09:17:38;;;;;;;9.10;8.20;;;29.60;99.90;;;;;;4178195;28;20064;-71
2022/09/15 09:20:14;;;;;;;8.85;8.00;;;29.60;99.90;;;;;;4146709;28;20432;-71
2022/09/15 09:22:25;;;;;;;8.63;7.68;;;29.60;99.90;;;;;;4146378;28;20046;-72
2022/09/15 09:24:43;;;;;;;9.00;8.18;;;29.60;99.90;;;;;;4146429;28;20378;-71
2022/09/15 09:26:49;;;;;;;9.73;8.68;;;29.70;99.90;;;;;;4146822;28;20492;-71
2022/09/15 09:29:05;;;;;;;9.00;8.07;;;29.60;99.90;;;;;;4177222;28;20498;-71
2022/09/15 09:31:20;;;;;;;8.65;7.75;;;29.60;99.90;;;;;;4146195;28;20053;-71
2022/09/15 09:33:54;;;;;;;9.77;8.10;;;29.60;99.90;;;;;;4161284;28;20048;-71
2022/09/15 09:36:02;;;;;;;10.27;8.13;;;29.50;99.90;;;;;;4146025;28;20489;-71
2022/09/15 09:38:10;;;;;;;10.02;7.68;;;29.50;99.90;;;;;;4145430;28;20493;-71
2022/09/15 09:40:15;;;;;;;9.38;7.75;;;29.50;99.90;;;;;;4161370;28;20049;-71
2022/09/15 09:42:25;;;;;;;8.00;7.20;;;29.50;99.90;;;;;;4145638;28;20564;-71
2022/09/15 09:44:33;;;;;;;8.35;7.13;;;29.60;99.90;;;;;;4145754;28;20069;-73
2022/09/15 09:46:38;;;;;;;17.75;7.97;;;29.60;99.90;;;;;;4144471;28;20058;-72
2022/09/15 09:49:15;;;;;;;8.35;7.55;;;29.60;99.90;;;;;;4145898;28;20057;-69
2022/09/15 09:51:35;;;;;;;8.77;7.97;;;29.60;99.90;;;;;;4145801;28;20128;-72
2022/09/15 09:53:41;;;;;;;12.68;8.35;;;29.60;99.90;;;;;;4145610;28;20045;-72
2022/09/15 09:55:54;;;;;;;29.00;12.15;;;29.60;99.90;;;;;;4145708;28;20572;-74
2022/09/15 09:58:14;;;;;;;25.95;9.98;;;29.70;99.90;;;;;;4160799;28;20069;-75
2022/09/15 10:00:34;;;;;;;31.48;11.07;;;29.60;99.90;;;;;;4146007;28;20042;-73
2022/09/15 10:02:46;;;;;;;32.58;11.52;;;29.60;99.90;;;;;;4160611;28;20550;-73
2022/09/15 10:05:16;;;;;;;22.00;10.98;;;29.60;99.90;;;;;;4145993;28;20066;-74
2022/09/15 10:07:23;;;;;;;22.20;10.95;;;29.60;99.90;;;;;;4160473;28;20603;-73
2022/09/15 10:09:32;;;;;;;18.92;10.13;;;29.60;99.90;;;;;;4143627;28;20155;-74
2022/09/15 10:11:51;;;;;;;15.75;10.20;;;29.60;99.90;;;;;;4145792;28;20046;-74
2022/09/15 10:13:56;;;;;;;29.10;12.77;;;29.60;99.90;;;;;;4145675;28;20042;-73
2022/09/15 10:16:04;;;;;;;21.20;10.98;;;29.60;99.90;;;;;;4160208;28;20484;-72
2022/09/15 10:18:27;;;;;;;27.27;12.70;;;29.60;99.90;;;;;;4145581;28;20454;-74
2022/09/15 10:20:49;;;;;;;72.80;18.73;;;29.60;99.90;;;;;;4145746;28;20042;-68
2022/09/15 10:23:06;;;;;;;69.97;16.40;;;29.60;99.90;;;;;;4145468;28;20057;-74
2022/09/15 10:25:31;;;;;;;41.70;14.75;;;29.50;99.90;;;;;;4145388;28;20056;-74
2022/09/15 10:28:16;;;;;;;22.52;10.73;;;29.50;99.90;;;;;;4145702;28;20054;-73
2022/09/15 10:30:23;;;;;;;25.15;12.85;;;29.30;99.90;;;;;;4145043;28;20050;-74
2022/09/15 10:32:29;;;;;;;38.10;17.73;;;29.30;99.90;;;;;;4144947;28;20050;-74
2022/09/15 10:35:17;;;;;;;29.70;18.55;;;29.30;99.90;;;;;;4110372;28;20054;-71
2022/09/15 10:37:50;;;;;;;35.05;21.73;;;29.30;99.90;;;;;;4110906;28;20079;-72
2022/09/15 10:40:10;;;;;;;31.65;21.17;;;29.30;99.90;;;;;;4126514;28;20046;-74
2022/09/15 10:42:46;;;;;;;32.72;19.75;;;29.30;99.90;;;;;;4110040;28;20141;-73
2022/09/15 10:45:11;;;;;;;34.40;20.00;;;29.30;99.90;;;;;;4111139;28;20379;-73
2022/09/15 10:47:47;;;;;;;34.60;20.15;;;29.30;99.90;;;;;;4111057;28;20121;-73
2022/09/15 10:50:15;;;;;;;112.35;23.58;;;29.30;99.90;;;;;;4110755;28;20055;-72
2022/09/15 10:52:56;;;;;;;54.80;18.45;;;29.20;99.90;;;;;;4110594;28;20050;-72
2022/09/15 10:55:20;;;;;;;20.48;15.85;;;29.20;99.90;;;;;;4110821;28;20074;-72
2022/09/15 10:58:20;;;;;;;20.75;14.77;;;29.20;99.90;;;;;;4126569;28;20081;-72
2022/09/15 11:00:26;;;;;;;20.65;14.82;;;29.20;99.90;;;;;;4153895;28;20128;-71
2022/09/15 11:02:58;;;;;;;18.85;12.57;;;29.20;99.90;;;;;;4159094;28;20061;-72
2022/09/15 11:05:25;;;;;;;17.35;11.68;;;29.10;99.90;;;;;;4159538;28;20053;-73
2022/09/15 11:08:01;;;;;;;17.75;11.75;;;29.10;99.90;;;;;;4159399;28;20136;-74
2022/09/15 11:10:31;;;;;;;17.90;11.25;;;29.10;99.90;;;;;;4158041;28;20049;-74
2022/09/15 11:12:49;;;;;;;16.17;11.30;;;29.10;99.90;;;;;;4158687;28;20639;-74
2022/09/15 11:15:25;;;;;;;17.77;12.07;;;29.00;99.90;;;;;;4158714;28;20057;-74
2022/09/15 11:18:07;;;;;;;17.20;11.20;;;29.00;99.90;;;;;;4142426;28;20042;-73
2022/09/15 11:20:40;;;;;;;17.45;10.82;;;29.00;99.90;;;;;;4142860;28;21659;-72